Time;durP1;ratioP1;P1;durP2;ratioP2;P2;SDS_P1;SDS_P2;PMS_P1;PMS_P2;Temp;Humidity;BMP_temperature;BMP_pressure;BME280_temperature;BME280_humidity;BME280_pressure;Samples;Min_cycle;Max_cycle;Signal;HPM_P1;HPM_P2
2022/03/20 00:00:45;;;;;;;0.60;0.60;;;4.50;70.60;;;;;;5055121;28;20453;-66
2022/03/20 00:03:33;;;;;;;1.43;0.80;;;4.40;70.60;;;;;;5054615;28;20845;-66
2022/03/20 00:06:20;;;;;;;1.33;1.13;;;4.30;70.70;;;;;;5054872;28;20425;-65
2022/03/20 00:09:06;;;;;;;1.53;1.43;;;4.30;70.50;;;;;;5055079;28;20812;-65
2022/03/20 00:11:53;;;;;;;4.00;3.20;;;4.30;70.60;;;;;;5053805;28;20464;-65
2022/03/20 00:14:42;;;;;;;4.30;4.10;;;4.40;70.40;;;;;;5054273;28;20544;-65
2022/03/20 00:17:29;;;;;;;0.50;0.50;;;4.30;70.80;;;;;;5054852;28;20461;-66
2022/03/20 00:20:16;;;;;;;1.73;1.63;;;4.30;70.90;;;;;;5054495;28;20424;-66
2022/03/20 00:23:04;;;;;;;0.50;0.50;;;4.20;71.10;;;;;;5053480;28;20440;-65
2022/03/20 00:25:52;;;;;;;0.53;0.53;;;4.20;71.30;;;;;;5054208;28;20930;-65
2022/03/20 00:28:39;;;;;;;0.50;0.50;;;4.00;71.60;;;;;;5054084;28;20488;-66
2022/03/20 00:31:32;;;;;;;0.50;0.50;;;4.00;71.90;;;;;;5054603;28;20460;-66
2022/03/20 00:34:19;;;;;;;1.87;1.87;;;4.00;72.10;;;;;;5054190;28;20448;-65
2022/03/20 00:37:07;;;;;;;0.40;0.40;;;4.00;72.10;;;;;;5054428;28;20518;-66
2022/03/20 00:39:54;;;;;;;5.17;2.83;;;3.90;72.60;;;;;;5053459;28;20452;-65
2022/03/20 00:42:42;;;;;;;0.70;0.70;;;3.90;73.20;;;;;;5047539;28;20429;-66
2022/03/20 00:45:28;;;;;;;0.50;0.50;;;4.10;73.30;;;;;;5054520;28;20466;-65
2022/03/20 00:48:17;;;;;;;3.80;1.60;;;3.80;73.30;;;;;;5053772;28;20416;-66
2022/03/20 00:51:06;;;;;;;1.63;1.53;;;3.80;73.60;;;;;;5053615;28;20932;-66
2022/03/20 00:53:53;;;;;;;2.20;2.10;;;3.80;74.00;;;;;;5053689;28;20452;-65
2022/03/20 00:56:40;;;;;;;0.50;0.50;;;3.70;73.90;;;;;;5053676;28;20470;-69
2022/03/20 00:59:27;;;;;;;1.67;1.67;;;3.80;73.80;;;;;;5053866;28;20470;-66
2022/03/20 01:02:14;;;;;;;0.73;0.70;;;3.80;74.00;;;;;;5053716;28;20462;-65
2022/03/20 01:05:03;;;;;;;1.00;0.90;;;3.80;74.30;;;;;;5053587;28;20417;-66
2022/03/20 01:07:50;;;;;;;1.50;1.43;;;3.80;74.10;;;;;;5054106;28;20519;-65
2022/03/20 01:10:37;;;;;;;2.00;1.90;;;3.80;74.10;;;;;;5053787;28;20432;-66
2022/03/20 01:13:24;;;;;;;0.50;0.50;;;3.70;74.10;;;;;;5053203;28;20475;-66
2022/03/20 01:16:11;;;;;;;0.70;0.70;;;3.70;73.90;;;;;;5053455;28;20425;-66
2022/03/20 01:18:58;;;;;;;0.80;0.80;;;3.70;74.30;;;;;;5053581;28;20474;-65
2022/03/20 01:21:46;;;;;;;0.50;0.50;;;3.60;74.30;;;;;;5052935;28;20894;-65
2022/03/20 01:24:33;;;;;;;0.50;0.50;;;3.60;74.90;;;;;;5053548;28;20452;-65
2022/03/20 01:27:20;;;;;;;2.57;0.83;;;3.50;74.80;;;;;;5053505;28;20506;-66
2022/03/20 01:30:08;;;;;;;1.50;1.43;;;3.40;75.00;;;;;;5052916;28;20421;-66
2022/03/20 01:32:55;;;;;;;8.43;4.63;;;3.40;75.00;;;;;;5054126;28;20484;-65
2022/03/20 01:35:42;;;;;;;2.10;1.37;;;3.40;74.80;;;;;;5053425;28;20416;-65
2022/03/20 01:38:30;;;;;;;0.57;0.57;;;3.50;74.90;;;;;;5054082;28;20948;-66
2022/03/20 01:41:17;;;;;;;0.50;0.50;;;3.40;74.80;;;;;;5052915;28;20873;-66
2022/03/20 01:44:04;;;;;;;0.70;0.70;;;3.40;74.50;;;;;;5053130;28;20441;-66
2022/03/20 01:46:51;;;;;;;0.50;0.50;;;3.30;74.50;;;;;;5052833;28;20490;-66
2022/03/20 01:49:38;;;;;;;0.90;0.90;;;3.30;74.60;;;;;;5053429;28;20511;-64
2022/03/20 01:52:25;;;;;;;0.50;0.50;;;3.30;74.80;;;;;;5052814;28;20490;-65
2022/03/20 01:55:15;;;;;;;1.07;1.07;;;3.20;74.80;;;;;;5052947;28;20420;-65
2022/03/20 01:58:02;;;;;;;0.60;0.60;;;3.10;75.10;;;;;;5052664;28;20421;-65
2022/03/20 02:00:48;;;;;;;0.50;0.50;;;3.10;75.30;;;;;;5052975;28;20499;-65
2022/03/20 02:03:35;;;;;;;0.87;0.87;;;3.10;75.10;;;;;;5049156;28;20857;-65
2022/03/20 02:06:26;;;;;;;1.67;1.57;;;3.10;74.70;;;;;;5057703;28;20433;-66
2022/03/20 02:09:16;;;;;;;0.50;0.50;;;3.10;74.60;;;;;;5051744;28;20429;-65
2022/03/20 02:12:06;;;;;;;2.20;1.63;;;3.20;74.80;;;;;;5051453;28;20457;-65
2022/03/20 02:14:53;;;;;;;1.80;1.70;;;3.10;74.70;;;;;;5051898;28;20464;-65
2022/03/20 02:17:41;;;;;;;6.47;5.97;;;3.10;74.50;;;;;;5051574;28;20428;-65
2022/03/20 02:20:31;;;;;;;0.60;0.60;;;3.10;74.50;;;;;;5051505;28;20937;-64
2022/03/20 02:23:19;;;;;;;0.60;0.60;;;3.00;75.10;;;;;;5051699;28;20467;-65
2022/03/20 02:26:06;;;;;;;0.50;0.50;;;3.00;75.20;;;;;;5051585;28;20428;-64
2022/03/20 02:28:53;;;;;;;0.50;0.50;;;3.00;74.80;;;;;;5051762;28;20807;-66
2022/03/20 02:31:40;;;;;;;2.43;2.33;;;3.00;74.90;;;;;;5051579;28;20437;-65
2022/03/20 02:34:30;;;;;;;0.80;0.80;;;2.90;75.20;;;;;;5051438;28;20436;-66
2022/03/20 02:37:19;;;;;;;0.50;0.50;;;2.90;75.20;;;;;;5051980;28;20812;-65
2022/03/20 02:40:09;;;;;;;0.50;0.50;;;2.90;75.10;;;;;;5052143;28;20437;-65
2022/03/20 02:42:56;;;;;;;0.50;0.50;;;2.90;75.20;;;;;;5051192;28;20894;-65
2022/03/20 02:45:43;;;;;;;0.80;0.80;;;2.90;75.40;;;;;;5051692;28;20874;-65
2022/03/20 02:48:30;;;;;;;0.80;0.80;;;2.90;75.80;;;;;;5053910;28;20428;-65
2022/03/20 02:51:17;;;;;;;0.50;0.50;;;2.80;75.60;;;;;;5055449;28;20453;-65
2022/03/20 02:54:04;;;;;;;2.20;1.83;;;2.80;75.80;;;;;;5055685;28;20485;-66
2022/03/20 02:56:53;;;;;;;0.50;0.50;;;2.80;76.00;;;;;;5055961;28;20617;-65
2022/03/20 02:59:40;;;;;;;0.50;0.50;;;2.70;76.20;;;;;;5056186;28;20416;-66
2022/03/20 03:02:29;;;;;;;5.93;5.63;;;2.70;76.20;;;;;;5055703;28;20412;-66
2022/03/20 03:05:18;;;;;;;0.50;0.50;;;2.70;76.50;;;;;;5055958;28;20440;-64
2022/03/20 03:11:11;;;;;;;4.63;3.70;;;2.50;77.20;;;;;;5055870;28;20523;-65
2022/03/20 03:15:18;;;;;;;1.10;1.10;;;2.50;77.10;;;;;;5055329;28;20472;-64
2022/03/20 03:17:07;;;;;;;0.50;0.50;;;2.50;77.30;;;;;;5055150;28;20435;-66
2022/03/20 03:19:54;;;;;;;0.50;0.50;;;2.50;77.50;;;;;;5055045;28;20960;-66
2022/03/20 03:22:41;;;;;;;0.50;0.50;;;2.50;77.60;;;;;;5054510;28;20424;-65
2022/03/20 03:25:28;;;;;;;0.50;0.50;;;2.40;77.80;;;;;;5055168;28;20474;-65
2022/03/20 03:28:15;;;;;;;0.50;0.50;;;2.40;77.70;;;;;;5055010;28;20963;-64
2022/03/20 03:31:05;;;;;;;1.63;1.57;;;2.40;77.70;;;;;;5055658;28;20971;-64
2022/03/20 03:36:54;;;;;;;0.50;0.50;;;2.40;77.60;;;;;;5029740;28;20425;-64
2022/03/20 03:39:43;;;;;;;0.63;0.63;;;2.40;77.80;;;;;;5054515;28;20420;-65
2022/03/20 03:42:30;;;;;;;0.60;0.60;;;2.30;77.90;;;;;;5054625;28;20934;-65
2022/03/20 03:45:17;;;;;;;0.50;0.50;;;2.30;78.00;;;;;;5054596;28;20417;-65
2022/03/20 03:48:06;;;;;;;1.13;1.13;;;2.30;78.10;;;;;;5054537;28;20417;-64
2022/03/20 03:50:54;;;;;;;3.77;1.83;;;2.20;78.30;;;;;;5054518;28;20420;-65
2022/03/20 03:53:41;;;;;;;0.70;0.70;;;2.30;78.00;;;;;;5054038;28;20496;-65
2022/03/20 03:56:28;;;;;;;0.50;0.50;;;2.40;77.90;;;;;;5054532;28;20668;-65
2022/03/20 03:59:15;;;;;;;0.50;0.50;;;2.30;77.80;;;;;;5053587;28;20425;-65
2022/03/20 04:02:02;;;;;;;0.50;0.50;;;2.30;78.00;;;;;;5053859;28;20419;-66
2022/03/20 04:04:51;;;;;;;2.87;1.57;;;2.30;78.20;;;;;;5052611;28;20449;-65
2022/03/20 04:07:38;;;;;;;0.50;0.50;;;2.20;78.40;;;;;;5054440;28;20455;-65
2022/03/20 04:10:25;;;;;;;0.50;0.50;;;2.20;78.60;;;;;;5054345;28;20425;-65
2022/03/20 04:13:13;;;;;;;0.50;0.50;;;2.20;79.20;;;;;;5053796;28;20473;-65
2022/03/20 04:16:00;;;;;;;0.50;0.50;;;2.10;79.20;;;;;;5054038;28;20516;-66
2022/03/20 04:18:47;;;;;;;3.43;3.23;;;2.00;79.00;;;;;;5053481;28;20424;-65
2022/03/20 04:21:35;;;;;;;0.50;0.50;;;2.00;79.10;;;;;;5053739;28;20433;-65
2022/03/20 04:24:22;;;;;;;1.93;1.90;;;2.00;79.40;;;;;;5053736;28;20437;-65
2022/03/20 04:27:11;;;;;;;1.13;1.03;;;2.00;79.50;;;;;;5053976;28;20459;-66
2022/03/20 04:29:58;;;;;;;0.50;0.50;;;1.90;79.90;;;;;;5053453;28;20512;-65
2022/03/20 04:32:45;;;;;;;2.10;2.00;;;1.90;80.00;;;;;;5053092;28;20514;-64
2022/03/20 04:35:32;;;;;;;0.50;0.50;;;1.90;80.10;;;;;;5053423;28;20421;-65
2022/03/20 04:38:21;;;;;;;0.70;0.70;;;1.90;80.40;;;;;;5053104;28;20846;-65
2022/03/20 04:41:08;;;;;;;1.33;1.27;;;1.80;80.30;;;;;;5055180;28;20429;-64
2022/03/20 04:43:55;;;;;;;1.00;1.00;;;1.80;80.30;;;;;;5055382;28;20456;-65
2022/03/20 04:46:42;;;;;;;0.50;0.50;;;1.80;80.40;;;;;;5054824;28;20945;-64
2022/03/20 04:58:46;;;;;;;0.97;0.97;;;1.80;80.90;;;;;;5053940;28;20432;-65
2022/03/20 05:01:33;;;;;;;1.23;1.23;;;1.80;81.00;;;;;;5052583;28;20425;-66
2022/03/20 05:04:21;;;;;;;0.50;0.50;;;1.80;80.80;;;;;;5053147;28;20961;-65
2022/03/20 05:07:08;;;;;;;0.50;0.50;;;1.70;81.00;;;;;;5053374;28;20461;-65
2022/03/20 05:16:05;;;;;;;0.50;0.50;;;1.70;81.50;;;;;;5049523;28;20795;-65
2022/03/20 05:18:53;;;;;;;0.50;0.50;;;1.70;81.40;;;;;;5053199;28;20933;-65
2022/03/20 05:21:40;;;;;;;1.13;1.03;;;1.80;81.80;;;;;;5052651;28;20427;-66
2022/03/20 05:24:27;;;;;;;0.97;0.83;;;1.80;81.80;;;;;;5053086;28;20444;-65
2022/03/20 05:27:14;;;;;;;0.50;0.50;;;1.70;81.70;;;;;;5052878;28;20510;-65
2022/03/20 05:30:05;;;;;;;1.10;1.10;;;1.70;81.90;;;;;;5052597;28;20435;-64
2022/03/20 05:32:52;;;;;;;1.20;1.20;;;1.70;82.20;;;;;;5052083;28;20981;-64
2022/03/20 05:35:40;;;;;;;0.50;0.50;;;1.80;82.10;;;;;;5052742;28;20421;-65
2022/03/20 05:38:27;;;;;;;0.60;0.60;;;1.80;81.50;;;;;;5053002;28;20476;-65
2022/03/20 05:44:21;;;;;;;0.50;0.50;;;1.90;82.10;;;;;;5052558;28;20960;-64
2022/03/20 05:47:10;;;;;;;0.87;0.87;;;2.00;81.80;;;;;;5052787;28;20483;-66
2022/03/20 05:49:56;;;;;;;0.50;0.50;;;2.20;81.30;;;;;;5053023;28;20421;-65
2022/03/20 05:52:43;;;;;;;0.50;0.50;;;2.20;81.40;;;;;;5052336;28;20489;-65
2022/03/20 05:58:35;;;;;;;0.50;0.50;;;2.10;81.60;;;;;;5052634;28;20421;-65
2022/03/20 06:01:23;;;;;;;0.50;0.50;;;2.10;81.80;;;;;;5052997;28;20514;-65
2022/03/20 06:04:12;;;;;;;0.60;0.60;;;2.10;81.60;;;;;;5053041;28;20445;-64
2022/03/20 06:06:59;;;;;;;3.47;2.70;;;2.10;81.60;;;;;;5052662;28;20420;-65
2022/03/20 06:09:45;;;;;;;1.33;0.97;;;2.10;81.40;;;;;;5052493;28;20417;-65
2022/03/20 06:12:32;;;;;;;3.43;1.07;;;2.20;81.10;;;;;;5052268;28;20424;-65
2022/03/20 06:15:19;;;;;;;1.37;1.33;;;2.20;81.30;;;;;;5052503;28;20417;-64
2022/03/20 06:18:06;;;;;;;0.90;0.90;;;2.20;81.30;;;;;;5052455;28;20528;-65
2022/03/20 06:20:57;;;;;;;0.50;0.50;;;2.20;81.40;;;;;;5052962;28;20429;-65
2022/03/20 06:23:45;;;;;;;0.60;0.60;;;2.30;81.40;;;;;;5052971;28;20980;-65
2022/03/20 06:26:32;;;;;;;1.43;1.43;;;2.30;81.30;;;;;;5052686;28;20421;-65
2022/03/20 06:29:19;;;;;;;2.47;2.03;;;2.40;80.70;;;;;;5052348;28;20546;-65
2022/03/20 06:32:06;;;;;;;0.53;0.53;;;2.40;81.10;;;;;;5051938;28;20424;-65
2022/03/20 06:34:54;;;;;;;0.50;0.50;;;2.50;80.70;;;;;;5052245;28;20506;-65
2022/03/20 06:37:43;;;;;;;0.50;0.50;;;2.60;80.40;;;;;;5052113;28;20425;-65
2022/03/20 06:40:31;;;;;;;1.17;0.80;;;2.60;80.00;;;;;;5052491;28;20452;-65
2022/03/20 06:43:18;;;;;;;0.50;0.50;;;2.60;79.80;;;;;;5052552;28;20439;-65
2022/03/20 06:46:05;;;;;;;0.50;0.50;;;2.70;79.90;;;;;;5052597;28;20506;-65
2022/03/20 06:48:52;;;;;;;0.50;0.50;;;2.70;79.80;;;;;;5052606;28;20417;-66
2022/03/20 06:51:39;;;;;;;0.90;0.90;;;2.80;80.00;;;;;;5052577;28;20425;-66
2022/03/20 06:54:28;;;;;;;0.70;0.70;;;2.80;79.80;;;;;;5052534;28;20523;-66
2022/03/20 06:57:18;;;;;;;0.50;0.50;;;2.90;80.00;;;;;;5052926;28;20430;-66
2022/03/20 07:00:06;;;;;;;0.50;0.50;;;2.90;79.70;;;;;;5053464;28;20417;-66
2022/03/20 07:02:54;;;;;;;1.80;1.17;;;3.00;79.40;;;;;;5053341;28;20777;-65
2022/03/20 07:05:40;;;;;;;0.70;0.70;;;3.10;79.00;;;;;;5054651;28;20925;-66
2022/03/20 07:08:28;;;;;;;0.50;0.50;;;3.10;79.00;;;;;;5055944;28;20417;-66
2022/03/20 07:11:16;;;;;;;0.50;0.50;;;3.20;79.10;;;;;;5055334;28;20831;-66
2022/03/20 07:14:03;;;;;;;1.30;1.20;;;3.20;78.70;;;;;;5055049;28;20468;-66
2022/03/20 07:16:52;;;;;;;0.60;0.60;;;3.30;78.50;;;;;;5053884;28;20505;-66
2022/03/20 07:19:40;;;;;;;1.50;1.50;;;3.40;78.50;;;;;;5054310;28;20416;-65
2022/03/20 07:22:27;;;;;;;0.50;0.50;;;3.50;78.60;;;;;;5053560;28;20429;-65
2022/03/20 07:31:24;;;;;;;0.67;0.67;;;3.60;77.80;;;;;;5065915;28;20512;-65
2022/03/20 07:34:11;;;;;;;0.60;0.60;;;3.70;77.90;;;;;;5067889;28;20468;-65
2022/03/20 07:36:58;;;;;;;1.43;0.90;;;3.80;77.50;;;;;;5070620;28;20459;-65
2022/03/20 07:39:46;;;;;;;1.07;1.07;;;3.80;77.00;;;;;;5070914;28;20425;-66
2022/03/20 07:42:34;;;;;;;0.93;0.90;;;3.90;77.20;;;;;;5069043;28;20432;-66
2022/03/20 07:45:22;;;;;;;0.50;0.50;;;4.00;76.60;;;;;;5068974;28;20481;-66
2022/03/20 07:48:09;;;;;;;0.50;0.50;;;4.00;76.30;;;;;;5068077;28;20429;-65
2022/03/20 07:50:56;;;;;;;14.70;4.80;;;4.10;76.60;;;;;;5069715;28;20502;-65
2022/03/20 07:53:43;;;;;;;1.10;1.10;;;4.20;76.60;;;;;;5067570;28;20496;-66
2022/03/20 07:56:34;;;;;;;1.23;1.13;;;4.30;76.70;;;;;;5068442;28;20424;-65
2022/03/20 07:59:21;;;;;;;1.83;1.73;;;4.40;76.00;;;;;;5059486;28;20428;-65
2022/03/20 08:02:09;;;;;;;2.93;2.73;;;4.60;76.30;;;;;;5055120;28;20432;-65
2022/03/20 08:04:56;;;;;;;2.87;2.67;;;4.60;76.10;;;;;;5055577;28;20996;-65
2022/03/20 08:07:43;;;;;;;0.50;0.50;;;4.70;75.50;;;;;;5055955;28;20569;-65
2022/03/20 08:10:30;;;;;;;0.50;0.50;;;4.70;75.20;;;;;;5055798;28;20428;-66
2022/03/20 08:13:17;;;;;;;1.73;0.80;;;4.80;75.70;;;;;;5054052;28;20488;-64
2022/03/20 08:16:05;;;;;;;3.47;3.30;;;4.90;75.60;;;;;;5056238;28;20425;-65
2022/03/20 08:18:54;;;;;;;0.50;0.50;;;5.00;75.00;;;;;;5054946;28;20429;-64
2022/03/20 08:21:42;;;;;;;2.03;1.93;;;5.00;74.90;;;;;;5055403;28;20448;-65
2022/03/20 08:24:29;;;;;;;0.83;0.83;;;5.10;75.00;;;;;;5056208;28;20958;-64
2022/03/20 08:27:16;;;;;;;2.00;1.90;;;5.20;75.10;;;;;;5055061;28;20436;-66
2022/03/20 08:30:03;;;;;;;0.73;0.73;;;5.30;75.20;;;;;;5055005;28;21043;-66
2022/03/20 08:32:52;;;;;;;0.50;0.50;;;5.40;74.70;;;;;;5053946;28;20424;-66
2022/03/20 08:35:41;;;;;;;3.03;2.93;;;5.40;74.50;;;;;;5053140;28;20413;-65
2022/03/20 08:38:28;;;;;;;0.60;0.60;;;5.50;74.60;;;;;;5054992;28;20417;-66
2022/03/20 08:41:15;;;;;;;3.00;2.67;;;5.70;74.70;;;;;;5054911;28;20424;-66
2022/03/20 08:44:02;;;;;;;3.03;2.73;;;5.80;74.70;;;;;;5054639;28;20820;-66
2022/03/20 08:46:49;;;;;;;0.50;0.50;;;5.80;74.20;;;;;;5054842;28;20627;-66
2022/03/20 08:49:36;;;;;;;0.50;0.50;;;6.00;74.20;;;;;;5054561;28;20435;-65
2022/03/20 08:52:24;;;;;;;1.60;1.50;;;6.10;73.80;;;;;;5054311;28;20460;-66
2022/03/20 08:55:12;;;;;;;1.73;1.73;;;6.20;73.80;;;;;;5054173;28;20460;-66
2022/03/20 08:57:58;;;;;;;1.30;1.20;;;6.30;73.70;;;;;;5054148;28;20417;-65
2022/03/20 09:00:46;;;;;;;1.50;0.73;;;6.40;73.30;;;;;;5054169;28;20416;-66
2022/03/20 09:03:33;;;;;;;3.63;3.30;;;6.40;73.20;;;;;;5052779;28;20448;-66
2022/03/20 09:06:21;;;;;;;0.80;0.80;;;6.50;72.30;;;;;;5054195;28;20629;-66
2022/03/20 09:09:13;;;;;;;2.10;1.63;;;6.60;72.40;;;;;;5052692;28;20451;-66
2022/03/20 09:12:01;;;;;;;4.67;1.50;;;6.70;72.00;;;;;;5054274;28;20428;-66
2022/03/20 09:14:48;;;;;;;1.67;1.57;;;6.90;71.80;;;;;;5053852;28;20464;-66
2022/03/20 09:20:41;;;;;;;0.50;0.50;;;7.00;71.70;;;;;;5052907;28;20443;-66
2022/03/20 09:23:28;;;;;;;1.87;1.77;;;7.10;71.50;;;;;;5044398;28;20479;-66
2022/03/20 09:26:16;;;;;;;0.50;0.50;;;7.20;71.30;;;;;;5053999;28;20482;-67
2022/03/20 09:29:04;;;;;;;0.80;0.80;;;7.20;71.50;;;;;;5054020;28;20420;-67
2022/03/20 09:31:51;;;;;;;1.17;1.07;;;7.30;71.40;;;;;;5051712;28;20436;-67
2022/03/20 09:34:38;;;;;;;3.27;3.13;;;7.40;71.20;;;;;;5053667;28;20460;-68
2022/03/20 09:37:25;;;;;;;1.80;1.70;;;7.50;71.40;;;;;;5053624;28;20429;-67
2022/03/20 09:40:12;;;;;;;1.57;0.77;;;7.60;70.70;;;;;;5054126;28;20424;-66
2022/03/20 09:43:01;;;;;;;0.50;0.50;;;7.70;70.50;;;;;;5053568;28;20466;-65
2022/03/20 09:45:49;;;;;;;0.50;0.50;;;7.80;70.60;;;;;;5053696;28;20413;-66
2022/03/20 09:48:36;;;;;;;0.50;0.50;;;7.90;70.60;;;;;;5054181;28;20440;-68
2022/03/20 09:51:24;;;;;;;0.53;0.53;;;7.90;70.80;;;;;;5054094;28;20425;-67
2022/03/20 09:54:13;;;;;;;0.60;0.60;;;8.00;70.00;;;;;;5052390;28;20844;-68
2022/03/20 09:57:04;;;;;;;0.90;0.90;;;8.10;70.10;;;;;;5051769;28;20801;-67
2022/03/20 09:59:52;;;;;;;0.50;0.50;;;8.20;69.00;;;;;;5052538;28;20526;-67
2022/03/20 10:02:39;;;;;;;0.60;0.60;;;8.30;68.60;;;;;;5053363;28;20428;-67
2022/03/20 10:05:26;;;;;;;1.60;1.50;;;8.30;68.40;;;;;;5053410;28;20914;-66
2022/03/20 10:08:17;;;;;;;0.80;0.80;;;8.40;68.10;;;;;;5054161;28;20444;-68
2022/03/20 10:11:15;;;;;;;2.30;1.80;;;8.50;67.70;;;;;;5053217;28;20431;-66
2022/03/20 10:14:10;;;;;;;4.10;3.87;;;8.60;66.60;;;;;;5052289;28;20557;-68
2022/03/20 10:17:13;;;;;;;0.50;0.50;;;8.70;65.30;;;;;;5052567;28;20520;-67
2022/03/20 10:20:14;;;;;;;1.87;1.77;;;8.70;65.20;;;;;;5051828;28;20510;-67
2022/03/20 10:23:01;;;;;;;0.97;0.97;;;8.80;64.70;;;;;;5052473;28;20451;-68
2022/03/20 10:25:51;;;;;;;0.50;0.50;;;8.90;63.80;;;;;;5053073;28;20471;-70
2022/03/20 10:28:40;;;;;;;6.00;3.47;;;9.00;64.30;;;;;;5051482;28;20728;-68
2022/03/20 10:31:27;;;;;;;0.50;0.50;;;9.00;63.00;;;;;;5051934;28;20432;-66
2022/03/20 10:34:16;;;;;;;2.93;2.83;;;9.10;63.50;;;;;;5052700;28;20553;-68
2022/03/20 10:37:03;;;;;;;7.47;6.93;;;9.10;63.40;;;;;;5051333;28;20499;-67
2022/03/20 10:40:08;;;;;;;1.30;1.30;;;9.30;62.20;;;;;;5051330;28;20542;-68
2022/03/20 10:43:10;;;;;;;0.40;0.40;;;9.30;61.80;;;;;;5051567;28;20848;-68
2022/03/20 10:46:00;;;;;;;1.80;1.70;;;9.40;61.10;;;;;;5051322;28;20416;-66
2022/03/20 10:48:48;;;;;;;4.10;3.80;;;9.50;61.60;;;;;;5052826;28;20439;-68
2022/03/20 10:51:41;;;;;;;0.50;0.50;;;9.50;62.50;;;;;;5051269;28;20424;-67
2022/03/20 10:54:39;;;;;;;3.37;1.80;;;9.60;61.20;;;;;;5052479;28;20547;-70
2022/03/20 10:57:32;;;;;;;1.73;1.03;;;9.70;61.30;;;;;;5052159;28;20482;-66
2022/03/20 11:00:19;;;;;;;0.50;0.50;;;9.70;59.80;;;;;;5050323;28;20427;-66
2022/03/20 11:03:07;;;;;;;1.53;1.43;;;9.80;60.30;;;;;;5051806;28;20456;-67
2022/03/20 11:05:57;;;;;;;2.20;2.10;;;9.90;59.60;;;;;;5052190;28;20413;-65
2022/03/20 11:08:45;;;;;;;1.70;1.60;;;10.00;58.20;;;;;;5053198;28;20447;-65
2022/03/20 11:11:34;;;;;;;0.67;0.60;;;10.10;57.90;;;;;;5056049;28;20869;-66
2022/03/20 11:14:23;;;;;;;1.13;0.70;;;10.20;58.30;;;;;;5056461;28;21001;-65
2022/03/20 11:17:13;;;;;;;0.60;0.60;;;10.30;57.50;;;;;;5056065;28;20482;-65
2022/03/20 11:20:03;;;;;;;2.43;2.23;;;10.30;57.20;;;;;;5055534;28;20428;-66
2022/03/20 11:22:53;;;;;;;8.97;2.00;;;10.30;56.60;;;;;;5054333;28;20429;-65
2022/03/20 11:25:44;;;;;;;1.13;1.13;;;10.40;57.10;;;;;;5054652;28;20502;-67
2022/03/20 11:28:42;;;;;;;2.47;2.27;;;10.50;56.50;;;;;;5055693;28;20457;-66
2022/03/20 11:31:34;;;;;;;9.40;3.97;;;10.50;56.60;;;;;;5046468;28;20469;-67
2022/03/20 11:34:24;;;;;;;1.57;1.47;;;10.60;56.20;;;;;;5054861;28;20548;-68
2022/03/20 11:37:12;;;;;;;1.37;1.27;;;10.60;55.90;;;;;;5055603;28;20991;-67
2022/03/20 11:40:10;;;;;;;0.93;0.93;;;10.70;56.40;;;;;;5055714;28;20450;-66
2022/03/20 11:43:19;;;;;;;0.80;0.80;;;10.80;56.20;;;;;;5053970;28;20436;-66
2022/03/20 11:46:19;;;;;;;1.63;1.53;;;10.80;56.90;;;;;;5055092;28;20958;-65
2022/03/20 11:49:22;;;;;;;0.60;0.60;;;10.90;56.70;;;;;;5054242;28;20802;-65
2022/03/20 11:52:11;;;;;;;2.30;2.30;;;11.00;56.70;;;;;;5055162;28;20421;-66
2022/03/20 11:54:59;;;;;;;1.43;0.90;;;11.00;56.70;;;;;;5054573;28;20468;-65
2022/03/20 11:57:47;;;;;;;1.00;1.00;;;11.10;56.70;;;;;;5055369;28;20432;-66
2022/03/20 12:00:39;;;;;;;0.70;0.70;;;11.20;56.90;;;;;;5055538;28;20440;-65
2022/03/20 12:03:51;;;;;;;3.60;3.23;;;11.20;56.80;;;;;;5045646;28;20451;-67
2022/03/20 12:06:53;;;;;;;2.20;2.10;;;11.30;57.00;;;;;;5055239;28;20417;-66
2022/03/20 12:09:58;;;;;;;3.63;3.53;;;11.30;56.20;;;;;;5055182;28;20844;-66
2022/03/20 12:13:15;;;;;;;2.20;1.17;;;11.20;56.50;;;;;;5054819;28;20551;-66
2022/03/20 12:16:04;;;;;;;3.13;3.03;;;11.30;56.30;;;;;;5054351;28;20456;-66
2022/03/20 12:19:07;;;;;;;0.47;0.47;;;11.30;56.50;;;;;;5054489;28;20488;-66
2022/03/20 12:21:55;;;;;;;2.30;2.20;;;11.40;56.90;;;;;;5054733;28;20423;-65
2022/03/20 12:24:49;;;;;;;0.50;0.50;;;11.40;56.30;;;;;;5054749;28;20474;-66
2022/03/20 12:27:46;;;;;;;5.13;3.43;;;11.50;55.90;;;;;;5055085;28;20425;-67
2022/03/20 12:30:35;;;;;;;6.73;3.93;;;11.60;56.00;;;;;;5053838;28;20535;-65
2022/03/20 12:33:25;;;;;;;1.37;1.27;;;11.60;56.00;;;;;;5054425;28;20444;-67
2022/03/20 12:36:27;;;;;;;1.90;1.80;;;11.60;56.00;;;;;;5054697;28;21019;-66
2022/03/20 12:39:54;;;;;;;1.17;1.07;;;11.70;56.10;;;;;;5054385;28;20435;-67
2022/03/20 12:42:44;;;;;;;1.00;1.00;;;11.80;56.50;;;;;;5053932;28;20420;-66
2022/03/20 12:45:32;;;;;;;0.50;0.50;;;11.90;55.70;;;;;;5054411;28;20491;-67
2022/03/20 12:48:21;;;;;;;1.17;1.10;;;11.90;55.80;;;;;;5054361;28;20420;-66
2022/03/20 12:51:11;;;;;;;6.60;2.20;;;12.00;55.30;;;;;;5054582;28;20487;-67
2022/03/20 12:54:11;;;;;;;2.00;1.57;;;12.10;55.60;;;;;;5054575;28;20522;-66
2022/03/20 12:57:03;;;;;;;0.70;0.70;;;12.10;55.50;;;;;;5054795;28;20429;-65
2022/03/20 13:00:06;;;;;;;1.37;1.37;;;12.10;55.10;;;;;;5054330;28;20424;-66
2022/03/20 13:03:03;;;;;;;0.50;0.50;;;12.40;55.60;;;;;;5052563;28;20424;-65
2022/03/20 13:05:51;;;;;;;2.77;2.60;;;12.50;55.20;;;;;;5054053;28;20508;-64
2022/03/20 13:08:41;;;;;;;2.33;1.80;;;12.80;55.50;;;;;;5052890;28;20428;-66
2022/03/20 13:11:51;;;;;;;3.90;1.80;;;13.00;55.00;;;;;;5044586;28;20930;-65
2022/03/20 13:14:48;;;;;;;1.53;1.00;;;13.30;53.70;;;;;;5053751;28;20468;-66
2022/03/20 13:17:36;;;;;;;1.63;1.27;;;13.60;51.20;;;;;;5054475;28;20431;-65
2022/03/20 13:20:25;;;;;;;0.53;0.53;;;13.80;51.20;;;;;;5054725;28;20514;-65
2022/03/20 13:23:14;;;;;;;2.50;2.30;;;14.40;51.00;;;;;;5054142;28;20526;-66
2022/03/20 13:26:02;;;;;;;0.83;0.80;;;15.20;50.40;;;;;;5052148;28;20424;-68
2022/03/20 13:28:49;;;;;;;0.40;0.40;;;16.00;49.20;;;;;;5053197;28;20276;-67
2022/03/20 13:31:36;;;;;;;3.22;3.03;;;16.90;48.50;;;;;;5052138;28;20201;-69
2022/03/20 13:34:23;;;;;;;0.63;0.63;;;17.50;47.10;;;;;;5052961;28;20627;-67
2022/03/20 13:37:11;;;;;;;0.40;0.40;;;17.90;46.40;;;;;;5053134;28;20228;-67
2022/03/20 13:39:58;;;;;;;1.20;1.20;;;18.90;45.90;;;;;;5052451;28;20693;-69
2022/03/20 13:42:47;;;;;;;2.70;2.60;;;19.80;45.50;;;;;;5052697;28;20201;-67
2022/03/20 13:45:35;;;;;;;4.13;2.47;;;20.20;43.90;;;;;;5052932;28;20283;-68
2022/03/20 13:48:23;;;;;;;0.82;0.82;;;20.40;42.80;;;;;;5052859;28;20216;-66
2022/03/20 13:51:10;;;;;;;2.63;2.22;;;20.90;43.40;;;;;;5052793;28;20612;-66
2022/03/20 13:54:11;;;;;;;0.93;0.93;;;21.10;42.30;;;;;;5051595;28;20229;-66
2022/03/20 13:57:07;;;;;;;0.60;0.60;;;21.80;41.40;;;;;;5052773;28;20307;-66
2022/03/20 13:59:57;;;;;;;2.35;2.15;;;22.30;40.50;;;;;;5052709;28;20275;-66
2022/03/20 14:02:49;;;;;;;0.40;0.40;;;22.60;39.70;;;;;;5053924;28;20209;-66
2022/03/20 14:05:37;;;;;;;2.30;2.10;;;23.00;39.90;;;;;;5054310;28;20226;-66
2022/03/20 14:08:26;;;;;;;0.52;0.52;;;23.40;39.00;;;;;;5053718;28;20213;-66
2022/03/20 14:11:13;;;;;;;0.60;0.60;;;23.10;38.40;;;;;;5053270;28;20205;-67
2022/03/20 14:14:00;;;;;;;2.72;2.53;;;22.90;38.20;;;;;;5053642;28;20232;-65
2022/03/20 14:17:00;;;;;;;0.70;0.70;;;22.70;38.50;;;;;;5053470;28;20225;-65
2022/03/20 14:19:48;;;;;;;0.93;0.93;;;22.80;38.10;;;;;;5053853;28;20232;-66
2022/03/20 14:22:46;;;;;;;0.40;0.40;;;22.50;37.90;;;;;;5053509;28;20204;-66
2022/03/20 14:25:39;;;;;;;1.65;1.30;;;22.80;38.00;;;;;;5053526;28;20194;-67
2022/03/20 14:28:27;;;;;;;0.40;0.40;;;22.40;37.50;;;;;;5044074;28;20202;-67
2022/03/20 14:40:46;;;;;;;5.47;3.20;;;24.30;35.60;;;;;;5051453;28;20194;-67
2022/03/20 14:43:32;;;;;;;0.40;0.40;;;23.70;35.60;;;;;;5053239;28;20221;-67
2022/03/20 14:46:19;;;;;;;2.63;2.45;;;23.70;36.20;;;;;;5056812;28;20618;-66
2022/03/20 14:49:07;;;;;;;1.55;1.50;;;23.50;35.40;;;;;;5056219;28;20255;-68
2022/03/20 14:51:56;;;;;;;0.40;0.40;;;22.20;35.10;;;;;;5056048;28;20269;-66
2022/03/20 14:54:43;;;;;;;1.48;1.40;;;21.40;36.20;;;;;;5056020;28;20221;-67
2022/03/20 14:57:30;;;;;;;1.75;1.65;;;21.00;36.80;;;;;;5056758;28;20256;-67
2022/03/20 15:00:18;;;;;;;1.02;1.02;;;20.40;37.00;;;;;;5055966;28;20204;-68
2022/03/20 15:03:05;;;;;;;1.05;1.05;;;20.00;36.80;;;;;;5055060;28;20695;-67
2022/03/20 15:05:52;;;;;;;1.50;1.40;;;19.50;37.30;;;;;;5055867;28;20194;-68
2022/03/20 15:11:47;;;;;;;0.50;0.50;;;18.50;37.70;;;;;;5054976;28;20198;-67
2022/03/20 15:14:34;;;;;;;1.05;1.05;;;18.10;38.60;;;;;;5055624;28;20236;-66
2022/03/20 15:17:22;;;;;;;0.43;0.43;;;17.60;38.60;;;;;;5056316;28;20709;-67
2022/03/20 15:20:10;;;;;;;5.25;2.72;;;16.90;39.30;;;;;;5056866;28;20345;-66
2022/03/20 15:22:58;;;;;;;1.27;1.25;;;16.60;40.20;;;;;;5055019;28;20228;-69
2022/03/20 15:25:46;;;;;;;1.40;1.30;;;16.60;40.30;;;;;;5056673;28;20198;-68
2022/03/20 15:28:33;;;;;;;1.75;1.65;;;16.40;40.00;;;;;;5056665;28;20205;-67
2022/03/20 15:31:20;;;;;;;3.22;3.13;;;16.30;40.50;;;;;;5056523;28;20604;-69
2022/03/20 15:34:08;;;;;;;0.77;0.77;;;16.20;41.00;;;;;;5056228;28;20288;-65
2022/03/20 15:36:55;;;;;;;0.50;0.50;;;16.10;40.80;;;;;;5056278;28;20596;-67